D Hanis, Texas
Current Conditions -  °F | °C
As of 6:51 PM on Monday 20 Oct 2014 (Local Time) from KHDO Reporting Station
Clear Clear  
Wind Chill: 24°   Ceiling: Unl
Heat Index: 24°   Visibility: 10mi
Dew Point: 13°   Wind: 10mph
Humidity: 48%   Direction: 100°E
Pressure: 29.99"   Gusts: NA
Location:  29.3507°N, 99.3117°W
Report Text: KHDO 202351Z AUTO 10009KT 10SM CLR 24/13 A2999 RMK AO2 SLP143 T02440128 10272 20244 55001
Loading
Personal Weather Stations






























Interactive Weather Map
Tropical Storm Tracking
New forecast layout! Learn more

10-Day Weather Forecast

Advertisements
Track Severe Weather on mobile